Home > Products > Valid Products > TAF

000
FTUS44 KHUN 211120
TAFMSL
TAF
KMSL 211120Z 2112/2212 00000KT P6SM SKC
     FM211500 30004KT P6SM SKC
     FM211700 25011KT P6SM FEW250
     FM220200 20005KT P6SM SCT200=



000
FTUS44 KHUN 211120
TAFMSL
TAF
KMSL 211120Z 2112/2212 00000KT P6SM SKC
     FM211500 30004KT P6SM SKC
     FM211700 25011KT P6SM FEW250
     FM220200 20005KT P6SM SCT200=



000
FTUS44 KHUN 211120
TAFHSV
TAF
KHSV 211120Z 2112/2212 00000KT P6SM SKC
     FM211500 28004KT P6SM SKC
     FM211800 25011KT P6SM FEW250
     FM220200 20005KT P6SM SCT200=



000
FTUS44 KHUN 210520
TAFHSV
TAF
KHSV 210520Z 2106/2206 00000KT P6SM SKC
     FM211500 30005KT P6SM SKC
     FM211800 25010KT P6SM SCT120
     FM220200 20005KT P6SM BKN120=



000
FTUS44 KHUN 210520
TAFMSL
TAF
KMSL 210520Z 2106/2206 00000KT P6SM SKC
     FM211500 30005KT P6SM SKC
     FM211700 25010KT P6SM SCT120
     FM220100 20005KT P6SM BKN120=



000
FTUS44 KHUN 210520
TAFMSL
TAF
KMSL 210520Z 2106/2206 00000KT P6SM SKC
     FM211500 30005KT P6SM SKC
     FM211700 25010KT P6SM SCT120
     FM220100 20005KT P6SM BKN120=



000
FTUS44 KHUN 210520
TAFHSV
TAF
KHSV 210520Z 2106/2206 00000KT P6SM SKC
     FM211500 30005KT P6SM SKC
     FM211800 25010KT P6SM SCT120
     FM220200 20005KT P6SM BKN120=



000
FTUS44 KHUN 210520
TAFMSL
TAF
KMSL 210520Z 2106/2206 00000KT P6SM SKC
     FM211500 30005KT P6SM SKC
     FM211700 25010KT P6SM SCT120
     FM220100 20005KT P6SM BKN120=



000
FTUS44 KHUN 210520
TAFHSV
TAF
KHSV 210520Z 2106/2206 00000KT P6SM SKC
     FM211500 30005KT P6SM SKC
     FM211800 25010KT P6SM SCT120
     FM220200 20005KT P6SM BKN120=



000
FTUS44 KHUN 210520
TAFMSL
TAF
KMSL 210520Z 2106/2206 00000KT P6SM SKC
     FM211500 30005KT P6SM SKC
     FM211700 25010KT P6SM SCT120
     FM220100 20005KT P6SM BKN120=



000
FTUS44 KHUN 210520
TAFHSV
TAF
KHSV 210520Z 2106/2206 00000KT P6SM SKC
     FM211500 30005KT P6SM SKC
     FM211800 25010KT P6SM SCT120
     FM220200 20005KT P6SM BKN120=



000
FTUS44 KHUN 202320
TAFMSL
TAF
KMSL 202320Z 2100/2124 30010KT P6SM SCT060
     FM210200 VRB05KT P6SM SKC
     FM211800 25010KT P6SM SCT120=



000
FTUS44 KHUN 202320
TAFMSL
TAF
KMSL 202320Z 2100/2124 30010KT P6SM SCT060
     FM210200 VRB05KT P6SM SKC
     FM211800 25010KT P6SM SCT120=



000
FTUS44 KHUN 202320
TAFHSV
TAF
KHSV 202320Z 2100/2124 30010KT P6SM SCT060
     FM210200 VRB05KT P6SM SKC
     FM211800 25010KT P6SM SCT120=



000
FTUS44 KHUN 202320
TAFHSV
TAF
KHSV 202320Z 2100/2124 30010KT P6SM SCT060
     FM210200 VRB05KT P6SM SKC
     FM211800 25010KT P6SM SCT120=



000
FTUS44 KHUN 202320
TAFMSL
TAF
KMSL 202320Z 2100/2124 30010KT P6SM SCT060
     FM210200 VRB05KT P6SM SKC
     FM211800 25010KT P6SM SCT120=



000
FTUS44 KHUN 202320
TAFHSV
TAF
KHSV 202320Z 2100/2124 30010KT P6SM SCT060
     FM210200 VRB05KT P6SM SKC
     FM211800 25010KT P6SM SCT120=



000
FTUS44 KHUN 202320
TAFHSV
TAF
KHSV 202320Z 2100/2124 30010KT P6SM SCT060
     FM210200 VRB05KT P6SM SKC
     FM211800 25010KT P6SM SCT120=



000
FTUS44 KHUN 202320
TAFMSL
TAF
KMSL 202320Z 2100/2124 30010KT P6SM SCT060
     FM210200 VRB05KT P6SM SKC
     FM211800 25010KT P6SM SCT120=



000
FTUS44 KHUN 201720
TAFHSV
TAF
KHSV 201720Z 2018/2118 27012G17KT P6SM BKN030
     FM202100 28010G15KT P6SM BKN050
     FM210100 VRB04KT P6SM SCT050 BKN120
     FM210500 VRB03KT P6SM SKC
     FM211600 26005KT P6SM SKC=



000
FTUS44 KHUN 201720
TAFHSV
TAF
KHSV 201720Z 2018/2118 27012G17KT P6SM BKN030
     FM202100 28010G15KT P6SM BKN050
     FM210100 VRB04KT P6SM SCT050 BKN120
     FM210500 VRB03KT P6SM SKC
     FM211600 26005KT P6SM SKC=



000
FTUS44 KHUN 201720
TAFMSL
TAF
KMSL 201720Z 2018/2118 28012G19KT P6SM BKN025
     FM202100 28010G17KT P6SM BKN050
     FM210000 VRB03KT P6SM SCT050 BKN250
     FM210400 VRB03KT P6SM SKC
     FM211600 25006KT P6SM SKC=



000
FTUS44 KHUN 201720
TAFMSL
TAF
KMSL 201720Z 2018/2118 28012G19KT P6SM BKN025
     FM202100 28010G17KT P6SM BKN050
     FM210000 VRB03KT P6SM SCT050 BKN250
     FM210400 VRB03KT P6SM SKC
     FM211600 25006KT P6SM SKC=



000
FTUS44 KHUN 201720
TAFHSV
TAF
KHSV 201720Z 2018/2118 27012G17KT P6SM BKN030
     FM202100 28010G15KT P6SM BKN050
     FM210100 VRB04KT P6SM SCT050 BKN120
     FM210500 VRB03KT P6SM SKC
     FM211600 26005KT P6SM SKC=



000
FTUS44 KHUN 201720
TAFMSL
TAF
KMSL 201720Z 2018/2118 28012G19KT P6SM BKN025
     FM202100 28010G17KT P6SM BKN050
     FM210000 VRB03KT P6SM SCT050 BKN250
     FM210400 VRB03KT P6SM SKC
     FM211600 25006KT P6SM SKC=



000
FTUS44 KHUN 201720
TAFHSV
TAF
KHSV 201720Z 2018/2118 27012G17KT P6SM BKN030
     FM202100 28010G15KT P6SM BKN050
     FM210100 VRB04KT P6SM SCT050 BKN120
     FM210500 VRB03KT P6SM SKC
     FM211600 26005KT P6SM SKC=



000
FTUS44 KHUN 201132
TAFMSL
TAF
KMSL 201132Z 2012/2112 25007KT P6SM BKN012
     FM201700 28012G19KT P6SM BKN030
     FM202000 28010G17KT P6SM BKN070
     FM210000 VRB03KT P6SM SCT070 BKN250=



000
FTUS44 KHUN 201132
TAFMSL
TAF
KMSL 201132Z 2012/2112 25007KT P6SM BKN012
     FM201700 28012G19KT P6SM BKN030
     FM202000 28010G17KT P6SM BKN070
     FM210000 VRB03KT P6SM SCT070 BKN250=



000
FTUS44 KHUN 201132
TAFHSV
TAF
KHSV 201132Z 2012/2112 24008KT P6SM BKN015
      TEMPO 2012/2015 SCT015 BKN250
     FM201600 27012G17KT P6SM BKN030
     FM202100 28010G15KT P6SM BKN050
     FM210100 VRB04KT P6SM SCT050 BKN120=



000
FTUS44 KHUN 201132
TAFHSV
TAF
KHSV 201132Z 2012/2112 24008KT P6SM BKN015
      TEMPO 2012/2015 SCT015 BKN250
     FM201600 27012G17KT P6SM BKN030
     FM202100 28010G15KT P6SM BKN050
     FM210100 VRB04KT P6SM SCT050 BKN120=



000
FTUS44 KHUN 201132
TAFHSV
TAF
KHSV 201132Z 2012/2112 24008KT P6SM BKN015
      TEMPO 2012/2015 SCT015 BKN250
     FM201600 27012G17KT P6SM BKN030
     FM202100 28010G15KT P6SM BKN050
     FM210100 VRB04KT P6SM SCT050 BKN120=



000
FTUS44 KHUN 201132
TAFMSL
TAF
KMSL 201132Z 2012/2112 25007KT P6SM BKN012
     FM201700 28012G19KT P6SM BKN030
     FM202000 28010G17KT P6SM BKN070
     FM210000 VRB03KT P6SM SCT070 BKN250=



000
FTUS44 KHUN 201132
TAFMSL
TAF
KMSL 201132Z 2012/2112 25007KT P6SM BKN012
     FM201700 28012G19KT P6SM BKN030
     FM202000 28010G17KT P6SM BKN070
     FM210000 VRB03KT P6SM SCT070 BKN250=



000
FTUS44 KHUN 201132
TAFHSV
TAF
KHSV 201132Z 2012/2112 24008KT P6SM BKN015
      TEMPO 2012/2015 SCT015 BKN250
     FM201600 27012G17KT P6SM BKN030
     FM202100 28010G15KT P6SM BKN050
     FM210100 VRB04KT P6SM SCT050 BKN120=



000
FTUS44 KHUN 200520
TAFHSV
TAF
KHSV 200520Z 2006/2106 19010KT P6SM SCT050 BKN250
     FM200900 20010KT 5SM -TSRA BKN030CB
     FM201100 21010KT P6SM OVC020
     FM201500 26015KT P6SM BKN030
     FM201800 27015G25KT P6SM BKN050
     FM210000 28010KT P6SM SCT080=



000
FTUS44 KHUN 200520
TAFMSL
TAF
KMSL 200520Z 2006/2106 19010KT P6SM SCT050 BKN250
     FM200800 20010KT 5SM -TSRA OVC030CB
     FM201000 23010KT P6SM OVC020
     FM201400 27015KT P6SM BKN030
     FM201700 28015G25KT P6SM BKN050
     FM202300 28010KT P6SM SCT080=



000
FTUS44 KHUN 200520
TAFMSL
TAF
KMSL 200520Z 2006/2106 19010KT P6SM SCT050 BKN250
     FM200800 20010KT 5SM -TSRA OVC030CB
     FM201000 23010KT P6SM OVC020
     FM201400 27015KT P6SM BKN030
     FM201700 28015G25KT P6SM BKN050
     FM202300 28010KT P6SM SCT080=



000
FTUS44 KHUN 200520
TAFMSL
TAF
KMSL 200520Z 2006/2106 19010KT P6SM SCT050 BKN250
     FM200800 20010KT 5SM -TSRA OVC030CB
     FM201000 23010KT P6SM OVC020
     FM201400 27015KT P6SM BKN030
     FM201700 28015G25KT P6SM BKN050
     FM202300 28010KT P6SM SCT080=



000
FTUS44 KHUN 200520
TAFMSL
TAF
KMSL 200520Z 2006/2106 19010KT P6SM SCT050 BKN250
     FM200800 20010KT 5SM -TSRA OVC030CB
     FM201000 23010KT P6SM OVC020
     FM201400 27015KT P6SM BKN030
     FM201700 28015G25KT P6SM BKN050
     FM202300 28010KT P6SM SCT080=



000
FTUS44 KHUN 200520
TAFHSV
TAF
KHSV 200520Z 2006/2106 19010KT P6SM SCT050 BKN250
     FM200900 20010KT 5SM -TSRA BKN030CB
     FM201100 21010KT P6SM OVC020
     FM201500 26015KT P6SM BKN030
     FM201800 27015G25KT P6SM BKN050
     FM210000 28010KT P6SM SCT080=



000
FTUS44 KHUN 200520
TAFHSV
TAF
KHSV 200520Z 2006/2106 19010KT P6SM SCT050 BKN250
     FM200900 20010KT 5SM -TSRA BKN030CB
     FM201100 21010KT P6SM OVC020
     FM201500 26015KT P6SM BKN030
     FM201800 27015G25KT P6SM BKN050
     FM210000 28010KT P6SM SCT080=



000
FTUS44 KHUN 200520
TAFHSV
TAF
KHSV 200520Z 2006/2106 19010KT P6SM SCT050 BKN250
     FM200900 20010KT 5SM -TSRA BKN030CB
     FM201100 21010KT P6SM OVC020
     FM201500 26015KT P6SM BKN030
     FM201800 27015G25KT P6SM BKN050
     FM210000 28010KT P6SM SCT080=



000
FTUS44 KHUN 192320
TAFMSL
TAF
KMSL 192320Z 2000/2024 23010KT P6SM SCT040
     FM200200 18010KT P6SM SKC
     FM200800 19010KT 5SM SHRA OVC025
      TEMPO 2008/2011 3SM -TSRA BR BKN015CB
     FM201400 26015KT P6SM BKN020
     FM201700 28015G25KT P6SM BKN050=



000
FTUS44 KHUN 192320
TAFHSV
TAF
KHSV 192320Z 2000/2024 24010KT P6SM SCT030
     FM200300 18010KT P6SM SKC
     FM200900 20010KT 5SM SHRA OVC025
      TEMPO 2009/2012 3SM -TSRA BR BKN015CB
     FM201500 26015KT P6SM BKN020
     FM201800 27015G25KT P6SM BKN050=



000
FTUS44 KHUN 192320
TAFHSV
TAF
KHSV 192320Z 2000/2024 24010KT P6SM SCT030
     FM200300 18010KT P6SM SKC
     FM200900 20010KT 5SM SHRA OVC025
      TEMPO 2009/2012 3SM -TSRA BR BKN015CB
     FM201500 26015KT P6SM BKN020
     FM201800 27015G25KT P6SM BKN050=



000
FTUS44 KHUN 192320
TAFMSL
TAF
KMSL 192320Z 2000/2024 23010KT P6SM SCT040
     FM200200 18010KT P6SM SKC
     FM200800 19010KT 5SM SHRA OVC025
      TEMPO 2008/2011 3SM -TSRA BR BKN015CB
     FM201400 26015KT P6SM BKN020
     FM201700 28015G25KT P6SM BKN050=



000
FTUS44 KHUN 192201 AAB
TAFMSL
TAF AMD
KMSL 192201Z 1922/2018 23010KT P6SM SCT040
     FM200300 18007KT P6SM SCT060
     FM200800 19010G15KT 5SM SHRA BKN025
     FM201400 26010G15KT P6SM BKN020=



000
FTUS44 KHUN 192201 AAB
TAFMSL
TAF AMD
KMSL 192201Z 1922/2018 23010KT P6SM SCT040
     FM200300 18007KT P6SM SCT060
     FM200800 19010G15KT 5SM SHRA BKN025
     FM201400 26010G15KT P6SM BKN020=



000
FTUS44 KHUN 192201 AAB
TAFMSL
TAF AMD
KMSL 192201Z 1922/2018 23010KT P6SM SCT040
     FM200300 18007KT P6SM SCT060
     FM200800 19010G15KT 5SM SHRA BKN025
     FM201400 26010G15KT P6SM BKN020=



000
FTUS44 KHUN 192201 AAB
TAFMSL
TAF AMD
KMSL 192201Z 1922/2018 23010KT P6SM SCT040
     FM200300 18007KT P6SM SCT060
     FM200800 19010G15KT 5SM SHRA BKN025
     FM201400 26010G15KT P6SM BKN020=



000
FTUS44 KHUN 192158 AAC
TAFHSV
TAF AMD
KHSV 192158Z 1922/2018 21010KT P6SM BKN050
     FM200000 21010KT P6SM SCT060
     FM200900 20010G15KT 5SM SHRA OVC020
     FM201500 26012KT P6SM OVC025=



000
FTUS44 KHUN 192158 AAC
TAFHSV
TAF AMD
KHSV 192158Z 1922/2018 21010KT P6SM BKN050
     FM200000 21010KT P6SM SCT060
     FM200900 20010G15KT 5SM SHRA OVC020
     FM201500 26012KT P6SM OVC025=



000
FTUS44 KHUN 192103 AAB
TAFHSV
TAF AMD
KHSV 192103Z 1921/2018 21012G17KT 5SM SHRA VCTS BKN035CB
      TEMPO 1921/1923 1SM +TSRA BR
     FM200300 18007KT P6SM BKN060
     FM200900 20010G15KT 5SM SHRA OVC020
     FM201500 26012KT P6SM OVC025=



000
FTUS44 KHUN 192103 AAB
TAFHSV
TAF AMD
KHSV 192103Z 1921/2018 21012G17KT 5SM SHRA VCTS BKN035CB
      TEMPO 1921/1923 1SM +TSRA BR
     FM200300 18007KT P6SM BKN060
     FM200900 20010G15KT 5SM SHRA OVC020
     FM201500 26012KT P6SM OVC025=



000
FTUS44 KHUN 192103 AAB
TAFHSV
TAF AMD
KHSV 192103Z 1921/2018 21012G17KT 5SM SHRA VCTS BKN035CB
      TEMPO 1921/1923 1SM +TSRA BR
     FM200300 18007KT P6SM BKN060
     FM200900 20010G15KT 5SM SHRA OVC020
     FM201500 26012KT P6SM OVC025=



000
FTUS44 KHUN 192026 AAA
TAFMSL
TAF AMD
KMSL 192026Z 1920/2018 22012G18KT P6SM -SHRA SCT015 OVC030
     FM192200 23012G18KT P6SM VCTS BKN035CB
     FM200000 21009KT P6SM BKN040
     FM200300 18007KT P6SM BKN060
     FM200800 19010G15KT 5SM SHRA BKN025
     FM201400 26010G15KT P6SM BKN020=



000
FTUS44 KHUN 192026 AAA
TAFHSV
TAF AMD
KHSV 192026Z 1920/2018 23012G18KT P6SM VCTS BKN025CB
     FM192100 21012G17KT 5SM SHRA VCTS BKN035CB
     FM200300 18007KT P6SM BKN060
     FM200900 20010G15KT 5SM SHRA OVC020
     FM201500 26012KT P6SM OVC025=



000
FTUS44 KHUN 192026 AAA
TAFHSV
TAF AMD
KHSV 192026Z 1920/2018 23012G18KT P6SM VCTS BKN025CB
     FM192100 21012G17KT 5SM SHRA VCTS BKN035CB
     FM200300 18007KT P6SM BKN060
     FM200900 20010G15KT 5SM SHRA OVC020
     FM201500 26012KT P6SM OVC025=



000
FTUS44 KHUN 192026 AAA
TAFMSL
TAF AMD
KMSL 192026Z 1920/2018 22012G18KT P6SM -SHRA SCT015 OVC030
     FM192200 23012G18KT P6SM VCTS BKN035CB
     FM200000 21009KT P6SM BKN040
     FM200300 18007KT P6SM BKN060
     FM200800 19010G15KT 5SM SHRA BKN025
     FM201400 26010G15KT P6SM BKN020=



000
FTUS44 KHUN 192026 AAA
TAFMSL
TAF AMD
KMSL 192026Z 1920/2018 22012G18KT P6SM -SHRA SCT015 OVC030
     FM192200 23012G18KT P6SM VCTS BKN035CB
     FM200000 21009KT P6SM BKN040
     FM200300 18007KT P6SM BKN060
     FM200800 19010G15KT 5SM SHRA BKN025
     FM201400 26010G15KT P6SM BKN020=



000
FTUS44 KHUN 192026 AAA
TAFHSV
TAF AMD
KHSV 192026Z 1920/2018 23012G18KT P6SM VCTS BKN025CB
     FM192100 21012G17KT 5SM SHRA VCTS BKN035CB
     FM200300 18007KT P6SM BKN060
     FM200900 20010G15KT 5SM SHRA OVC020
     FM201500 26012KT P6SM OVC025=



000
FTUS44 KHUN 191720
TAFMSL
TAF
KMSL 191720Z 1918/2018 22012G18KT P6SM SCT015 OVC030
     FM191900 23012G18KT 5SM SHRA VCTS BKN025CB
     FM200000 21009KT P6SM BKN040
     FM200300 18007KT P6SM BKN060
     FM200800 19010G15KT 5SM SHRA BKN025
     FM201400 26010G15KT P6SM BKN020=



000
FTUS44 KHUN 191720
TAFHSV
TAF
KHSV 191720Z 1918/2018 22012G20KT P6SM BKN020 OVC040
     FM192000 23012G18KT 5SM SHRA VCTS BKN025CB
     FM200100 21008KT P6SM BKN040
     FM200300 18007KT P6SM BKN060
     FM200900 20010G15KT 5SM SHRA OVC020
     FM201500 26012KT P6SM OVC025=



000
FTUS44 KHUN 191720
TAFHSV
TAF
KHSV 191720Z 1918/2018 22012G20KT P6SM BKN020 OVC040
     FM192000 23012G18KT 5SM SHRA VCTS BKN025CB
     FM200100 21008KT P6SM BKN040
     FM200300 18007KT P6SM BKN060
     FM200900 20010G15KT 5SM SHRA OVC020
     FM201500 26012KT P6SM OVC025=



000
FTUS44 KHUN 191720
TAFMSL
TAF
KMSL 191720Z 1918/2018 22012G18KT P6SM SCT015 OVC030
     FM191900 23012G18KT 5SM SHRA VCTS BKN025CB
     FM200000 21009KT P6SM BKN040
     FM200300 18007KT P6SM BKN060
     FM200800 19010G15KT 5SM SHRA BKN025
     FM201400 26010G15KT P6SM BKN020=



000
FTUS44 KHUN 191720
TAFMSL
TAF
KMSL 191720Z 1918/2018 22012G18KT P6SM SCT015 OVC030
     FM191900 23012G18KT 5SM SHRA VCTS BKN025CB
     FM200000 21009KT P6SM BKN040
     FM200300 18007KT P6SM BKN060
     FM200800 19010G15KT 5SM SHRA BKN025
     FM201400 26010G15KT P6SM BKN020=



000
FTUS44 KHUN 191720
TAFHSV
TAF
KHSV 191720Z 1918/2018 22012G20KT P6SM BKN020 OVC040
     FM192000 23012G18KT 5SM SHRA VCTS BKN025CB
     FM200100 21008KT P6SM BKN040
     FM200300 18007KT P6SM BKN060
     FM200900 20010G15KT 5SM SHRA OVC020
     FM201500 26012KT P6SM OVC025=



000
FTUS44 KHUN 191720
TAFHSV
TAF
KHSV 191720Z 1918/2018 22012G20KT P6SM BKN020 OVC040
     FM192000 23012G18KT 5SM SHRA VCTS BKN025CB
     FM200100 21008KT P6SM BKN040
     FM200300 18007KT P6SM BKN060
     FM200900 20010G15KT 5SM SHRA OVC020
     FM201500 26012KT P6SM OVC025=



000
FTUS44 KHUN 191720
TAFMSL
TAF
KMSL 191720Z 1918/2018 22012G18KT P6SM SCT015 OVC030
     FM191900 23012G18KT 5SM SHRA VCTS BKN025CB
     FM200000 21009KT P6SM BKN040
     FM200300 18007KT P6SM BKN060
     FM200800 19010G15KT 5SM SHRA BKN025
     FM201400 26010G15KT P6SM BKN020=



000
FTUS44 KHUN 191136
TAFHSV
TAF
KHSV 191136Z 1912/2012 15007KT P6SM -SHRA BKN020 OVC030
     FM191500 20010G18KT P6SM BKN030 OVC050
     FM191900 22012G20KT P6SM OVC040
     FM192000 23012G18KT 5SM SHRA VCTS BKN025CB
     FM200000 21008KT P6SM BKN040
     FM200300 18007KT P6SM BKN060
     FM200800 20010G15KT 5SM SHRA BKN025=



000
FTUS44 KHUN 191136
TAFMSL
TAF
KMSL 191136Z 1912/2012 17008KT P6SM -SHRA OVC009
     FM191400 20010KT P6SM OVC030
     FM191800 22012G18KT P6SM OVC040
     FM191900 23012G18KT 5SM SHRA VCTS BKN025CB
     FM192300 21009KT P6SM BKN040
     FM200200 18007KT P6SM BKN060
     FM200700 19010G15KT 5SM SHRA BKN025
     FM201000 20010G15KT P6SM BKN020=



000
FTUS44 KHUN 191136
TAFHSV
TAF
KHSV 191136Z 1912/2012 15007KT P6SM -SHRA BKN020 OVC030
     FM191500 20010G18KT P6SM BKN030 OVC050
     FM191900 22012G20KT P6SM OVC040
     FM192000 23012G18KT 5SM SHRA VCTS BKN025CB
     FM200000 21008KT P6SM BKN040
     FM200300 18007KT P6SM BKN060
     FM200800 20010G15KT 5SM SHRA BKN025=



000
FTUS44 KHUN 191136
TAFMSL
TAF
KMSL 191136Z 1912/2012 17008KT P6SM -SHRA OVC009
     FM191400 20010KT P6SM OVC030
     FM191800 22012G18KT P6SM OVC040
     FM191900 23012G18KT 5SM SHRA VCTS BKN025CB
     FM192300 21009KT P6SM BKN040
     FM200200 18007KT P6SM BKN060
     FM200700 19010G15KT 5SM SHRA BKN025
     FM201000 20010G15KT P6SM BKN020=



000
FTUS44 KHUN 190816 AAA
TAFHSV
TAF AMD
KHSV 190816Z 1908/2006 12006KT 4SM SHRA BKN015
     FM190900 15006KT 5SM -SHRA BR OVC020
     FM191000 16007KT 4SM SHRA BR OVC012
     FM191600 22012KT 5SM -SHRA BR OVC030
     FM192000 23015G25KT P6SM OVC040
      TEMPO 1921/2001 5SM -TSRA BR BKN025CB
     FM200100 17010KT P6SM BKN050=



000
FTUS44 KHUN 190816 AAA
TAFHSV
TAF AMD
KHSV 190816Z 1908/2006 12006KT 4SM SHRA BKN015
     FM190900 15006KT 5SM -SHRA BR OVC020
     FM191000 16007KT 4SM SHRA BR OVC012
     FM191600 22012KT 5SM -SHRA BR OVC030
     FM192000 23015G25KT P6SM OVC040
      TEMPO 1921/2001 5SM -TSRA BR BKN025CB
     FM200100 17010KT P6SM BKN050=



000
FTUS44 KHUN 190631 AAA
TAFMSL
TAF AMD
KMSL 190631Z 1907/2006 12005KT 6SM -SHRA BKN025 OVC035
     FM190800 15005KT 5SM SHRA BR OVC022
     FM191000 18006KT 4SM SHRA BR OVC015
     FM191500 23012KT 5SM -SHRA BR OVC030
     FM191900 25015G25KT P6SM OVC040
      TEMPO 1920/1924 5SM -TSRA BR BKN025CB
     FM200000 19010KT P6SM OVC050=



000
FTUS44 KHUN 190631 AAA
TAFMSL
TAF AMD
KMSL 190631Z 1907/2006 12005KT 6SM -SHRA BKN025 OVC035
     FM190800 15005KT 5SM SHRA BR OVC022
     FM191000 18006KT 4SM SHRA BR OVC015
     FM191500 23012KT 5SM -SHRA BR OVC030
     FM191900 25015G25KT P6SM OVC040
      TEMPO 1920/1924 5SM -TSRA BR BKN025CB
     FM200000 19010KT P6SM OVC050=



000
FTUS44 KHUN 190536
TAFHSV
TAF
KHSV 190536Z 1906/2006 14006KT P6SM -SHRA BKN100
     FM190900 15006KT 5SM SHRA BR OVC030
     FM191000 16007KT 4SM SHRA BR OVC012
     FM191600 22012KT 5SM -SHRA BR OVC030
     FM192000 23015G25KT P6SM OVC040
      TEMPO 1921/2001 5SM -TSRA BR BKN025CB
     FM200100 17010KT P6SM BKN050=



000
FTUS44 KHUN 190536
TAFMSL
TAF
KMSL 190536Z 1906/2006 12005KT 6SM -SHRA BKN080
     FM190800 15005KT 5SM SHRA BR OVC030
     FM191000 18006KT 4SM SHRA BR OVC015
     FM191500 23012KT 5SM -SHRA BR OVC030
     FM191900 25015G25KT P6SM OVC040
      TEMPO 1920/1924 5SM -TSRA BR BKN025CB
     FM200000 19010KT P6SM OVC050=



000
FTUS44 KHUN 190536
TAFHSV
TAF
KHSV 190536Z 1906/2006 14006KT P6SM -SHRA BKN100
     FM190900 15006KT 5SM SHRA BR OVC030
     FM191000 16007KT 4SM SHRA BR OVC012
     FM191600 22012KT 5SM -SHRA BR OVC030
     FM192000 23015G25KT P6SM OVC040
      TEMPO 1921/2001 5SM -TSRA BR BKN025CB
     FM200100 17010KT P6SM BKN050=



000
FTUS44 KHUN 190536
TAFMSL
TAF
KMSL 190536Z 1906/2006 12005KT 6SM -SHRA BKN080
     FM190800 15005KT 5SM SHRA BR OVC030
     FM191000 18006KT 4SM SHRA BR OVC015
     FM191500 23012KT 5SM -SHRA BR OVC030
     FM191900 25015G25KT P6SM OVC040
      TEMPO 1920/1924 5SM -TSRA BR BKN025CB
     FM200000 19010KT P6SM OVC050=



000
FTUS44 KHUN 182328
TAFHSV
TAF
KHSV 182328Z 1900/1924 VRB05KT P6SM SCT030 OVC100
     FM190300 VRB05KT P6SM VCSH BKN030
     FM190700 VRB05KT 5SM -SHRA BR OVC015
     FM191200 22010KT 3SM SHRA BR OVC009
     FM191800 23015KT P6SM OVC030
      TEMPO 1920/1924 5SM -TSRA BR BKN015CB=



000
FTUS44 KHUN 182328
TAFMSL
TAF
KMSL 182328Z 1900/1924 VRB05KT P6SM SCT030 OVC100
     FM190200 VRB05KT P6SM VCSH BKN030
     FM190600 VRB05KT 5SM -SHRA BR OVC015
     FM191100 23010KT 3SM SHRA BR OVC009
     FM191700 24015KT P6SM OVC030
      TEMPO 1920/1924 5SM -TSRA BR BKN015CB=



000
FTUS44 KHUN 182328
TAFHSV
TAF
KHSV 182328Z 1900/1924 VRB05KT P6SM SCT030 OVC100
     FM190300 VRB05KT P6SM VCSH BKN030
     FM190700 VRB05KT 5SM -SHRA BR OVC015
     FM191200 22010KT 3SM SHRA BR OVC009
     FM191800 23015KT P6SM OVC030
      TEMPO 1920/1924 5SM -TSRA BR BKN015CB=



000
FTUS44 KHUN 182328
TAFMSL
TAF
KMSL 182328Z 1900/1924 VRB05KT P6SM SCT030 OVC100
     FM190200 VRB05KT P6SM VCSH BKN030
     FM190600 VRB05KT 5SM -SHRA BR OVC015
     FM191100 23010KT 3SM SHRA BR OVC009
     FM191700 24015KT P6SM OVC030
      TEMPO 1920/1924 5SM -TSRA BR BKN015CB=



000
FTUS44 KHUN 182328
TAFHSV
TAF
KHSV 182328Z 1900/1924 VRB05KT P6SM SCT030 OVC100
     FM190300 VRB05KT P6SM VCSH BKN030
     FM190700 VRB05KT 5SM -SHRA BR OVC015
     FM191200 22010KT 3SM SHRA BR OVC009
     FM191800 23015KT P6SM OVC030
      TEMPO 1920/1924 5SM -TSRA BR BKN015CB=



000
FTUS44 KHUN 182328
TAFMSL
TAF
KMSL 182328Z 1900/1924 VRB05KT P6SM SCT030 OVC100
     FM190200 VRB05KT P6SM VCSH BKN030
     FM190600 VRB05KT 5SM -SHRA BR OVC015
     FM191100 23010KT 3SM SHRA BR OVC009
     FM191700 24015KT P6SM OVC030
      TEMPO 1920/1924 5SM -TSRA BR BKN015CB=



000
FTUS44 KHUN 182328
TAFHSV
TAF
KHSV 182328Z 1900/1924 VRB05KT P6SM SCT030 OVC100
     FM190300 VRB05KT P6SM VCSH BKN030
     FM190700 VRB05KT 5SM -SHRA BR OVC015
     FM191200 22010KT 3SM SHRA BR OVC009
     FM191800 23015KT P6SM OVC030
      TEMPO 1920/1924 5SM -TSRA BR BKN015CB=



000
FTUS44 KHUN 182328
TAFMSL
TAF
KMSL 182328Z 1900/1924 VRB05KT P6SM SCT030 OVC100
     FM190200 VRB05KT P6SM VCSH BKN030
     FM190600 VRB05KT 5SM -SHRA BR OVC015
     FM191100 23010KT 3SM SHRA BR OVC009
     FM191700 24015KT P6SM OVC030
      TEMPO 1920/1924 5SM -TSRA BR BKN015CB=



000
FTUS44 KHUN 181720
TAFHSV
TAF
KHSV 181720Z 1818/1918 13006KT P6SM SCT015 OVC150
     FM190300 13004KT P6SM -SHRA OVC025
     FM190500 11006KT 4SM -SHRA BR OVC015
     FM191000 16012KT 4SM -SHRA BR OVC009
     FM191600 23013KT P6SM VCSH SCT015 OVC035=



000
FTUS44 KHUN 181720
TAFMSL
TAF
KMSL 181720Z 1818/1918 10005KT P6SM SCT012 BKN035 OVC200
     FM190200 14004KT P6SM -SHRA OVC025
     FM190400 12004KT 4SM -SHRA BR OVC015
     FM190900 17010KT 4SM -SHRA BR OVC009
     FM191500 24012KT P6SM VCSH SCT025 OVC035=



000
FTUS44 KHUN 181720
TAFHSV
TAF
KHSV 181720Z 1818/1918 13006KT P6SM SCT015 OVC150
     FM190300 13004KT P6SM -SHRA OVC025
     FM190500 11006KT 4SM -SHRA BR OVC015
     FM191000 16012KT 4SM -SHRA BR OVC009
     FM191600 23013KT P6SM VCSH SCT015 OVC035=



000
FTUS44 KHUN 181720
TAFMSL
TAF
KMSL 181720Z 1818/1918 10005KT P6SM SCT012 BKN035 OVC200
     FM190200 14004KT P6SM -SHRA OVC025
     FM190400 12004KT 4SM -SHRA BR OVC015
     FM190900 17010KT 4SM -SHRA BR OVC009
     FM191500 24012KT P6SM VCSH SCT025 OVC035=



000
FTUS44 KHUN 181408 AAA
TAFMSL
TAF AMD
KMSL 181408Z 1814/1912 12004KT 3SM BR BKN003
     FM181500 10005KT P6SM BKN020
     FM181900 14004KT P6SM BKN035
     FM190100 14004KT P6SM -SHRA OVC025
     FM190300 12004KT 4SM -SHRA BR OVC015
     FM190900 17010KT 4SM -SHRA BR OVC009=



000
FTUS44 KHUN 181408 AAA
TAFMSL
TAF AMD
KMSL 181408Z 1814/1912 12004KT 3SM BR BKN003
     FM181500 10005KT P6SM BKN020
     FM181900 14004KT P6SM BKN035
     FM190100 14004KT P6SM -SHRA OVC025
     FM190300 12004KT 4SM -SHRA BR OVC015
     FM190900 17010KT 4SM -SHRA BR OVC009=



    US Dept of Commerce
    National Oceanic and Atmospheric Administration
    National Weather Service
    1325 East West Highway
    Silver Spring, MD 20910
    Page Author: NWS Internet Services Team
Disclaimer
Information Quality
Credits
Glossary
Privacy Policy
Freedom of Information Act (FOIA)
About Us
Career Opportunities